Time;durP1;ratioP1;P1;durP2;ratioP2;P2;SDS_P1;SDS_P2;PMS_P1;PMS_P2;Temp;Humidity;BMP_temperature;BMP_pressure;BME280_temperature;BME280_humidity;BME280_pressure;Samples;Min_cycle;Max_cycle;Signal;HPM_P1;HPM_P2
2022/06/14 00:00:53;;;;;;;18.95;5.93;;;;;;;8.24;88.68;102326.69;4936455;29;20102;-51
2022/06/14 00:03:22;;;;;;;23.52;5.82;;;;;;;8.32;88.31;102319.47;4935546;29;20019;-51
2022/06/14 00:05:48;;;;;;;19.40;6.07;;;;;;;8.34;88.04;102322.13;4936782;29;20027;-51
2022/06/14 00:08:14;;;;;;;21.85;5.75;;;;;;;8.41;88.10;102319.16;4935927;29;20436;-50
2022/06/14 00:10:40;;;;;;;19.58;5.25;;;;;;;8.44;88.06;102331.31;4935260;29;20032;-51
2022/06/14 00:13:07;;;;;;;17.73;5.20;;;;;;;8.46;87.94;102328.06;4936103;29;20079;-48
2022/06/14 00:15:32;;;;;;;19.08;5.97;;;;;;;8.44;87.55;102324.47;4936171;29;20024;-51
2022/06/14 00:17:57;;;;;;;16.90;5.20;;;;;;;8.45;87.48;102331.41;4935271;29;20041;-48
2022/06/14 00:20:23;;;;;;;16.73;5.18;;;;;;;8.45;87.19;102323.69;4935832;29;20036;-50
2022/06/14 00:22:49;;;;;;;23.45;5.30;;;;;;;8.36;87.30;102325.69;4935899;29;20436;-50
2022/06/14 00:25:23;;;;;;;16.95;5.40;;;;;;;8.35;87.70;102322.25;4934827;29;20047;-51
2022/06/14 00:27:48;;;;;;;28.80;5.97;;;;;;;8.36;87.18;102321.44;4935772;29;20107;-50
2022/06/14 00:30:14;;;;;;;19.60;6.05;;;;;;;8.32;87.58;102319.47;4935536;29;20032;-48
2022/06/14 00:32:40;;;;;;;23.55;6.13;;;;;;;8.32;88.12;102324.59;4935027;29;20411;-48
2022/06/14 00:35:05;;;;;;;21.02;5.53;;;;;;;8.29;88.40;102328.66;4935737;29;20473;-50
2022/06/14 00:37:31;;;;;;;12.98;4.38;;;;;;;8.20;86.97;102319.59;4935643;29;20023;-47
2022/06/14 00:39:56;;;;;;;21.95;5.40;;;;;;;8.10;86.77;102317.25;4934889;29;20031;-47
2022/06/14 00:42:22;;;;;;;21.23;6.15;;;;;;;8.00;87.20;102325.16;4935526;29;20083;-50
2022/06/14 00:45:12;;;;;;;16.20;5.22;;;;;;;7.91;87.27;102326.34;4935032;29;20039;-50
2022/06/14 00:48:05;;;;;;;21.02;6.10;;;;;;;7.86;88.40;102324.25;4935695;29;20063;-50
2022/06/14 00:50:37;;;;;;;18.67;6.43;;;;;;;7.72;89.50;102324.25;4926539;29;20119;-50
2022/06/14 00:53:06;;;;;;;24.15;6.88;;;;;;;7.70;89.94;102322.38;4934822;29;20019;-49
2022/06/14 00:55:46;;;;;;;19.65;5.53;;;;;;;7.62;89.17;102320.97;4935724;29;20032;-47
2022/06/14 00:58:24;;;;;;;19.05;6.20;;;;;;;7.51;88.98;102308.34;4935279;29;20111;-50
2022/06/14 01:01:10;;;;;;;21.45;6.40;;;;;;;7.45;89.09;102320.78;4934689;29;20392;-50
2022/06/14 01:03:43;;;;;;;19.95;6.57;;;;;;;7.35;90.04;102310.69;4935708;29;20051;-50
2022/06/14 01:06:16;;;;;;;22.50;6.03;;;;;;;7.27;89.89;102306.72;4934743;29;20038;-51
2022/06/14 01:08:51;;;;;;;17.25;6.50;;;;;;;7.24;90.44;102309.97;4935474;29;20084;-47
2022/06/14 01:11:26;;;;;;;19.95;7.05;;;;;;;7.27;91.22;102306.72;4935611;29;20107;-50
2022/06/14 01:13:52;;;;;;;23.15;6.60;;;;;;;7.27;91.42;102306.72;4934644;29;20043;-47
2022/06/14 01:16:17;;;;;;;22.13;6.90;;;;;;;7.33;92.01;102312.25;4935415;29;20027;-48
2022/06/14 01:18:44;;;;;;;20.33;7.07;;;;;;;7.28;91.06;102311.94;4935382;29;20440;-49
2022/06/14 01:21:10;;;;;;;22.35;6.82;;;;;;;7.27;90.91;102310.19;4934393;29;20159;-51
2022/06/14 01:23:35;;;;;;;24.20;7.03;;;;;;;7.32;92.19;102305.34;4935338;29;20095;-50
2022/06/14 01:26:17;;;;;;;19.95;8.00;;;;;;;7.32;92.42;102305.34;4935183;29;20403;-50
2022/06/14 01:28:46;;;;;;;23.38;7.65;;;;;;;7.21;91.50;102307.22;4934791;29;20051;-49
2022/06/14 01:31:14;;;;;;;24.10;7.65;;;;;;;7.22;92.27;102307.31;4935008;29;20027;-49
2022/06/14 01:33:45;;;;;;;21.08;7.25;;;;;;;7.20;92.63;102306.31;4935232;29;20028;-49
2022/06/14 01:36:17;;;;;;;24.02;7.28;;;;;;;7.18;92.24;102306.97;4934469;29;20024;-49
2022/06/14 01:38:45;;;;;;;26.33;7.53;;;;;;;7.15;92.47;102307.66;4935297;29;20036;-50
2022/06/14 01:41:49;;;;;;;29.98;8.40;;;;;;;7.17;93.26;102300.09;4936699;29;20035;-51
2022/06/14 01:44:31;;;;;;;22.38;7.97;;;;;;;7.13;92.64;102299.00;4938667;29;20098;-48
2022/06/14 01:47:15;;;;;;;23.67;8.05;;;;;;;7.08;92.53;102298.69;4938756;29;20071;-48
2022/06/14 01:53:23;;;;;;;24.33;7.10;;;;;;;6.98;92.00;102288.59;4938634;29;20080;-48
2022/06/14 01:55:54;;;;;;;27.17;7.80;;;;;;;6.94;92.39;102293.44;4937657;29;20035;-49
2022/06/14 01:58:33;;;;;;;24.17;7.43;;;;;;;6.90;92.90;102287.19;4938486;29;20052;-47
2022/06/14 02:01:18;;;;;;;21.75;7.75;;;;;;;6.86;92.88;102292.91;4938305;29;20523;-50
2022/06/14 02:06:43;;;;;;;25.33;8.00;;;;;;;6.75;93.71;102285.38;4938478;29;20090;-47
2022/06/14 02:09:27;;;;;;;24.52;8.18;;;;;;;6.80;94.85;102288.25;4937380;29;20059;-48
2022/06/14 02:11:56;;;;;;;23.23;8.02;;;;;;;6.73;93.56;102276.69;4938329;29;20043;-47
2022/06/14 02:14:31;;;;;;;27.27;8.10;;;;;;;6.74;94.57;102277.59;4938289;29;20032;-50
2022/06/14 02:17:31;;;;;;;21.20;8.38;;;;;;;6.70;93.96;102271.38;4937387;29;20071;-50
2022/06/14 02:20:15;;;;;;;21.30;8.27;;;;;;;6.67;93.85;102286.50;4938109;29;20091;-47
2022/06/14 02:22:45;;;;;;;25.67;7.75;;;;;;;6.65;93.93;102280.41;4938055;29;20500;-47
2022/06/14 02:25:34;;;;;;;19.35;7.72;;;;;;;6.61;93.68;102277.53;4936997;29;20039;-50
2022/06/14 02:28:17;;;;;;;21.92;8.80;;;;;;;6.58;94.63;102271.41;4937736;29;20035;-50
2022/06/14 02:30:54;;;;;;;24.08;8.60;;;;;;;6.56;94.71;102274.66;4937424;29;20028;-51
2022/06/14 02:33:25;;;;;;;23.75;8.15;;;;;;;6.51;94.51;102269.22;4937829;29;20484;-50
2022/06/14 02:35:57;;;;;;;25.17;8.65;;;;;;;6.51;94.65;102268.34;4937663;29;20094;-50
2022/06/14 02:38:35;;;;;;;25.83;8.25;;;;;;;6.50;94.43;102261.44;4936776;29;20020;-50
2022/06/14 02:41:10;;;;;;;27.48;9.18;;;;;;;6.45;94.73;102263.66;4937816;29;20046;-48
2022/06/14 02:43:41;;;;;;;20.35;8.82;;;;;;;6.41;94.28;102261.66;4937649;29;20500;-50
2022/06/14 02:46:22;;;;;;;23.00;8.05;;;;;;;6.39;94.54;102258.09;4936820;29;20027;-50
2022/06/14 02:48:54;;;;;;;25.02;8.80;;;;;;;6.37;94.56;102259.69;4937593;29;20019;-50
2022/06/14 02:51:27;;;;;;;17.73;7.72;;;;;;;6.34;94.25;102262.00;4936859;29;20027;-50
2022/06/14 02:53:58;;;;;;;23.40;8.15;;;;;;;6.28;94.53;102251.38;4937233;29;20472;-48
2022/06/14 02:56:27;;;;;;;23.60;8.27;;;;;;;6.23;94.75;102251.91;4937498;29;20047;-47
2022/06/14 02:59:05;;;;;;;25.88;8.48;;;;;;;6.23;94.74;102264.72;4936360;29;20027;-47
2022/06/14 03:01:45;;;;;;;19.75;8.55;;;;;;;6.19;94.78;102265.28;4937519;29;20036;-50
2022/06/14 03:04:19;;;;;;;24.80;8.77;;;;;;;6.19;95.05;102261.84;4937052;29;20491;-50
2022/06/14 03:07:06;;;;;;;24.20;8.20;;;;;;;6.15;95.22;102258.19;4936560;29;20020;-49
2022/06/14 03:09:36;;;;;;;22.35;9.32;;;;;;;6.18;95.85;102262.63;4937093;29;20031;-50
2022/06/14 03:12:11;;;;;;;28.08;8.38;;;;;;;6.20;96.34;102268.75;4937157;29;20063;-48
2022/06/14 03:14:57;;;;;;;26.67;9.63;;;;;;;6.16;96.10;102269.28;4936205;29;20028;-49
2022/06/14 03:17:48;;;;;;;30.33;9.85;;;;;;;6.16;95.91;102265.09;4936916;29;20032;-50
2022/06/14 03:20:41;;;;;;;25.02;8.82;;;;;;;6.13;96.23;102259.72;4932754;29;20043;-49
2022/06/14 03:23:44;;;;;;;29.17;9.52;;;;;;;6.14;96.24;102265.75;4936729;29;20106;-49
2022/06/14 03:26:28;;;;;;;24.95;8.77;;;;;;;6.06;95.41;102265.22;4936315;29;20512;-50
2022/06/14 03:29:04;;;;;;;25.63;8.43;;;;;;;6.05;95.48;102271.09;4936724;29;20492;-50
2022/06/14 03:31:33;;;;;;;25.13;8.88;;;;;;;6.01;95.23;102261.44;4936861;29;20031;-48
2022/06/14 03:34:04;;;;;;;21.95;8.27;;;;;;;5.98;95.87;102258.63;4935890;29;20032;-47
2022/06/14 03:36:30;;;;;;;24.98;8.90;;;;;;;6.00;96.05;102262.22;4936673;29;20087;-50
2022/06/14 03:38:58;;;;;;;18.60;7.57;;;;;;;5.97;95.32;102261.97;4936375;29;20102;-51
2022/06/14 03:41:26;;;;;;;21.60;8.43;;;;;;;5.98;95.69;102259.56;4935703;29;20435;-51
2022/06/14 03:43:55;;;;;;;23.58;8.30;;;;;;;5.95;95.50;102266.97;4936492;29;20064;-48
2022/06/14 03:46:20;;;;;;;24.08;8.45;;;;;;;6.00;95.92;102269.91;4936600;29;20055;-51
2022/06/14 03:48:51;;;;;;;28.43;9.67;;;;;;;5.99;96.25;102261.34;4935792;29;20472;-47
2022/06/14 03:51:34;;;;;;;25.65;9.55;;;;;;;5.98;96.46;102253.50;4936400;29;20286;-50
2022/06/14 03:54:17;;;;;;;25.85;8.40;;;;;;;6.01;96.24;102258.88;4936500;29;20047;-49
2022/06/14 03:56:57;;;;;;;23.10;8.27;;;;;;;6.00;95.69;102263.09;4935689;29;20026;-50
2022/06/14 03:59:34;;;;;;;21.95;7.97;;;;;;;5.96;95.95;102257.63;4936167;29;20038;-50
2022/06/14 04:02:12;;;;;;;21.30;8.48;;;;;;;5.99;96.17;102263.00;4935273;29;20468;-49
2022/06/14 04:04:52;;;;;;;22.08;8.50;;;;;;;5.99;96.19;102265.56;4936117;29;20084;-51
2022/06/14 04:07:37;;;;;;;22.10;8.70;;;;;;;6.01;96.74;102264.00;4936142;29;20027;-51
2022/06/14 04:10:21;;;;;;;25.63;9.43;;;;;;;6.02;97.12;102274.34;4935167;29;20035;-50
2022/06/14 04:13:15;;;;;;;26.45;9.75;;;;;;;6.05;97.28;102271.09;4936062;29;20391;-51
2022/06/14 04:15:43;;;;;;;29.08;9.93;;;;;;;6.09;97.28;102270.53;4935392;29;20039;-50
2022/06/14 04:18:35;;;;;;;34.28;10.25;;;;;;;6.09;97.88;102273.09;4935826;29;20102;-48
2022/06/14 04:21:33;;;;;;;21.35;8.57;;;;;;;6.13;97.88;102280.22;4936040;29;20066;-49
2022/06/14 04:24:27;;;;;;;17.98;9.00;;;;;;;6.19;98.19;102285.78;4935069;29;20035;-47
2022/06/14 04:27:31;;;;;;;30.50;9.85;;;;;;;6.21;97.63;102279.09;4935678;29;20048;-50
2022/06/14 04:30:10;;;;;;;28.20;9.45;;;;;;;6.28;98.25;102279.53;4931531;29;20055;-51
2022/06/14 04:32:40;;;;;;;20.50;9.13;;;;;;;6.33;98.40;102281.63;4935759;29;20472;-50
2022/06/14 04:35:14;;;;;;;25.50;9.65;;;;;;;6.36;98.59;102283.50;4935596;29;20027;-47
2022/06/14 04:37:45;;;;;;;20.52;9.85;;;;;;;6.43;99.13;102285.72;4935125;29;20042;-50
2022/06/14 04:40:17;;;;;;;25.27;9.90;;;;;;;6.48;99.54;102284.38;4935568;29;20031;-50
2022/06/14 04:43:01;;;;;;;28.48;10.00;;;;;;;6.56;99.93;102283.22;4935868;29;20024;-47
2022/06/14 04:45:40;;;;;;;24.58;10.23;;;;;;;6.64;100.00;102276.06;4934721;29;20036;-50
2022/06/14 04:48:23;;;;;;;30.33;11.50;;;;;;;6.70;100.00;102275.59;4935383;29;20468;-51
2022/06/14 04:50:55;;;;;;;35.08;12.50;;;;;;;6.83;100.00;102283.34;4934839;29;20373;-47
2022/06/14 04:53:27;;;;;;;28.17;12.52;;;;;;;6.94;100.00;102278.06;4935432;29;20511;-50
2022/06/14 04:56:07;;;;;;;33.50;14.00;;;;;;;7.02;100.00;102276.88;4935364;29;20473;-50
2022/06/14 04:58:52;;;;;;;34.03;16.48;;;;;;;7.12;100.00;102281.84;4934978;29;20039;-50
2022/06/14 05:01:30;;;;;;;32.08;16.98;;;;;;;7.25;100.00;102279.28;4935516;29;20035;-51
2022/06/14 05:04:01;;;;;;;40.65;18.98;;;;;;;7.40;100.00;102281.13;4935329;29;20047;-50
2022/06/14 05:06:37;;;;;;;43.40;21.00;;;;;;;7.50;100.00;102286.06;4934608;29;20464;-50
2022/06/14 05:09:08;;;;;;;53.78;23.75;;;;;;;7.65;100.00;102285.28;4935539;29;20027;-51
2022/06/14 05:11:45;;;;;;;55.15;26.23;;;;;;;7.77;100.00;102280.91;4935582;29;20039;-51
2022/06/14 05:14:20;;;;;;;55.13;26.80;;;;;;;7.95;100.00;102282.88;4934551;29;20090;-50
2022/06/14 05:16:51;;;;;;;66.10;29.17;;;;;;;8.07;100.00;102286.25;4938821;29;20079;-49
2022/06/14 05:19:19;;;;;;;67.53;30.55;;;;;;;8.22;100.00;102289.78;4938396;29;20040;-49
2022/06/14 05:21:52;;;;;;;60.72;28.65;;;;;;;8.31;100.00;102289.44;4939211;29;20039;-51
2022/06/14 05:24:18;;;;;;;56.00;24.92;;;;;;;8.45;100.00;102284.28;4938983;29;20494;-51
2022/06/14 05:27:05;;;;;;;52.90;24.52;;;;;;;8.52;100.00;102282.22;4938561;29;20048;-47
2022/06/14 05:29:35;;;;;;;65.32;23.98;;;;;;;8.65;100.00;102290.66;4939154;29;20094;-51
2022/06/14 05:32:37;;;;;;;55.53;22.15;;;;;;;8.75;100.00;102290.41;4938990;29;20062;-49
2022/06/14 05:35:30;;;;;;;62.58;22.60;;;;;;;8.87;100.00;102298.88;4937980;29;20032;-51
2022/06/14 05:38:26;;;;;;;59.45;22.38;;;;;;;9.00;100.00;102291.88;4938947;29;20031;-49
2022/06/14 05:41:01;;;;;;;57.85;24.77;;;;;;;9.10;100.00;102296.75;4937868;29;20439;-47
2022/06/14 05:43:31;;;;;;;60.72;26.63;;;;;;;9.23;100.00;102293.22;4938741;29;20063;-49
2022/06/14 05:46:05;;;;;;;74.13;27.40;;;;;;;9.29;100.00;102293.59;4938605;29;20105;-51
2022/06/14 05:48:36;;;;;;;64.47;30.33;;;;;;;9.37;100.00;102294.03;4938066;29;20106;-49
2022/06/14 05:51:05;;;;;;;75.90;33.40;;;;;;;9.50;100.00;102296.53;4938607;29;20036;-50
2022/06/14 05:53:41;;;;;;;62.40;32.65;;;;;;;9.62;100.00;102291.19;4938608;29;20492;-49
2022/06/14 05:56:16;;;;;;;80.53;35.05;;;;;;;9.71;100.00;102295.97;4938127;29;20550;-50
2022/06/14 05:58:53;;;;;;;69.65;31.13;;;;;;;9.83;100.00;102296.63;4938658;29;20038;-49
2022/06/14 06:01:23;;;;;;;;;;;;;;;9.85;99.98;102292.47;4938015;29;20527;-48
2022/06/14 06:03:59;;;;;;;69.65;28.13;;;;;;;10.01;100.00;102294.19;4938478;29;19921;-51
2022/06/14 06:06:32;;;;;;;73.00;29.85;;;;;;;10.13;100.00;102299.13;4938333;29;20034;-50
2022/06/14 06:09:03;;;;;;;64.82;27.13;;;;;;;10.19;100.00;102302.06;4937314;29;20034;-50
2022/06/14 06:12:17;;;;;;;64.75;24.52;;;;;;;10.28;98.61;102300.81;4938381;29;20027;-50
2022/06/14 06:14:50;;;;;;;58.40;22.42;;;;;;;10.41;98.33;102298.09;4937589;29;20098;-50
2022/06/14 06:17:24;;;;;;;61.95;22.70;;;;;;;10.50;99.05;102303.75;4937282;29;20046;-51
2022/06/14 06:20:36;;;;;;;59.78;22.63;;;;;;;10.59;98.45;102308.50;4937851;29;20440;-51
2022/06/14 06:23:13;;;;;;;55.65;21.40;;;;;;;10.69;98.19;102310.75;4937158;29;20535;-49
2022/06/14 06:25:49;;;;;;;56.07;20.50;;;;;;;10.80;97.55;102306.16;4937628;29;20051;-51
2022/06/14 06:28:32;;;;;;;48.60;18.52;;;;;;;10.92;95.52;102307.59;4938149;29;20027;-50
2022/06/14 06:31:12;;;;;;;63.20;20.63;;;;;;;11.04;95.78;102306.53;4937082;29;20023;-50
2022/06/14 06:33:42;;;;;;;51.33;16.42;;;;;;;11.18;91.92;102303.75;4937903;29;20032;-51
2022/06/14 06:36:29;;;;;;;41.17;15.98;;;;;;;11.28;91.96;102305.13;4937512;29;20404;-50
2022/06/14 06:39:35;;;;;;;35.72;11.07;;;;;;;11.38;90.98;102309.94;4937740;29;20077;-51
2022/06/14 06:42:10;;;;;;;31.33;9.25;;;;;;;11.49;89.28;102306.19;4937491;29;20039;-51
2022/06/14 06:45:00;;;;;;;29.70;9.05;;;;;;;11.59;85.88;102306.66;4937119;29;20115;-50
2022/06/14 06:47:41;;;;;;;30.10;8.95;;;;;;;11.66;89.34;102316.47;4937675;29;20024;-51
2022/06/14 06:50:22;;;;;;;27.38;7.25;;;;;;;11.75;87.70;102308.25;4937419;29;20497;-48
2022/06/14 06:53:00;;;;;;;19.30;5.45;;;;;;;11.82;84.72;102313.81;4937588;29;20361;-50
2022/06/14 06:55:41;;;;;;;22.48;4.78;;;;;;;11.86;82.67;102307.09;4937392;29;20491;-50
2022/06/14 06:58:23;;;;;;;16.77;4.70;;;;;;;11.93;80.22;102309.16;4936421;29;20043;-51
2022/06/14 07:00:53;;;;;;;23.73;6.07;;;;;;;12.07;81.27;102307.28;4937242;29;20551;-52
2022/06/14 07:03:53;;;;;;;15.85;4.32;;;;;;;12.22;81.64;102311.38;4937469;29;20027;-51
2022/06/14 07:06:27;;;;;;;19.08;4.80;;;;;;;12.42;74.27;102308.00;4936397;29;20456;-49
2022/06/14 07:09:11;;;;;;;19.05;4.93;;;;;;;12.58;75.63;102309.56;4937129;29;20454;-51
2022/06/14 07:11:42;;;;;;;20.88;4.80;;;;;;;12.76;71.67;102309.50;4936607;29;20067;-51
2022/06/14 07:14:30;;;;;;;11.10;2.75;;;;;;;12.84;71.90;102302.94;4937073;29;20150;-50
2022/06/14 07:17:12;;;;;;;15.18;2.65;;;;;;;12.97;67.74;102309.53;4936818;29;20057;-51
2022/06/14 07:19:43;;;;;;;14.68;2.97;;;;;;;13.11;63.42;102310.16;4936189;29;20482;-51
2022/06/14 07:22:25;;;;;;;9.77;2.45;;;;;;;13.17;65.85;102313.00;4936928;29;20066;-51
2022/06/14 07:25:00;;;;;;;14.63;3.40;;;;;;;13.24;65.38;102302.91;4936769;29;20502;-48
2022/06/14 07:27:33;;;;;;;19.17;3.28;;;;;;;13.44;64.30;102307.25;4936030;29;20131;-51
2022/06/14 07:30:08;;;;;;;14.20;3.10;;;;;;;13.59;64.92;102306.97;4936641;29;20031;-50
2022/06/14 07:32:46;;;;;;;12.25;3.10;;;;;;;13.73;65.18;102298.88;4936119;29;20443;-49
2022/06/14 07:35:15;;;;;;;13.82;3.60;;;;;;;13.78;64.12;102300.84;4936521;29;20526;-49
2022/06/14 07:37:45;;;;;;;14.48;4.07;;;;;;;13.78;61.35;102299.97;4936088;29;20024;-50
2022/06/14 07:40:20;;;;;;;14.90;4.85;;;;;;;13.78;63.18;102303.41;4935690;29;20118;-50
2022/06/14 07:43:01;;;;;;;18.05;4.43;;;;;;;13.83;64.32;102304.50;4936552;29;20468;-50
2022/06/14 07:45:35;;;;;;;13.18;4.03;;;;;;;13.97;62.03;102301.56;4936610;29;20371;-50
2022/06/14 07:48:05;;;;;;;18.70;4.22;;;;;;;14.03;61.42;102301.78;4935685;29;20059;-51
2022/06/14 07:50:36;;;;;;;12.85;4.65;;;;;;;14.05;60.83;102300.16;4936317;29;20038;-51
2022/06/14 07:53:10;;;;;;;21.65;4.80;;;;;;;14.13;63.24;102301.31;4936221;29;20161;-51
2022/06/14 07:55:43;;;;;;;16.17;4.50;;;;;;;14.17;60.21;102299.72;4935874;29;20032;-51
2022/06/14 07:58:31;;;;;;;15.02;4.07;;;;;;;14.23;63.23;102299.06;4936257;29;20579;-51
2022/06/14 08:01:10;;;;;;;13.57;3.65;;;;;;;14.31;59.40;102300.25;4935472;29;20028;-51
2022/06/14 08:04:11;;;;;;;21.40;4.75;;;;;;;14.44;63.58;102305.06;4936262;29;20480;-51
2022/06/14 08:06:41;;;;;;;19.70;4.57;;;;;;;14.44;59.82;102299.00;4925179;29;20075;-50
2022/06/14 08:09:14;;;;;;;18.95;4.30;;;;;;;14.53;58.67;102301.94;4935286;29;20042;-50
2022/06/14 08:11:51;;;;;;;15.82;4.55;;;;;;;14.62;60.33;102296.19;4936080;29;20365;-51
2022/06/14 08:14:29;;;;;;;23.42;5.82;;;;;;;14.68;62.17;102288.69;4936217;29;20035;-50
2022/06/14 08:16:57;;;;;;;21.67;5.40;;;;;;;14.71;58.79;102291.38;4935269;29;20034;-51
2022/06/14 08:19:33;;;;;;;19.80;4.30;;;;;;;14.83;58.12;102293.50;4935853;29;20103;-51
2022/06/14 08:22:07;;;;;;;22.48;5.65;;;;;;;14.95;60.32;102295.63;4935101;29;20028;-51
2022/06/14 08:24:38;;;;;;;18.10;5.63;;;;;;;14.98;59.11;102286.25;4936178;29;20037;-52
2022/06/14 08:27:11;;;;;;;21.27;5.50;;;;;;;15.05;58.02;102287.34;4935691;29;20404;-51
2022/06/14 08:29:45;;;;;;;19.85;5.40;;;;;;;15.13;58.48;102288.50;4935299;29;20030;-50
2022/06/14 08:32:31;;;;;;;18.75;4.50;;;;;;;15.24;59.57;102293.19;4935680;29;20115;-50
2022/06/14 08:35:38;;;;;;;20.73;4.20;;;;;;;15.33;60.08;102288.28;4935885;29;20077;-52
2022/06/14 08:38:14;;;;;;;10.93;4.40;;;;;;;15.40;58.00;102285.06;4924705;29;20113;-51
2022/06/14 08:41:10;;;;;;;18.23;4.25;;;;;;;15.47;58.24;102279.22;4935626;29;20027;-51
2022/06/14 08:43:44;;;;;;;19.35;5.13;;;;;;;15.58;59.34;102273.47;4935046;29;20028;-52
2022/06/14 08:46:33;;;;;;;16.50;5.15;;;;;;;15.72;59.91;102277.41;4935409;29;20484;-52
2022/06/14 08:49:08;;;;;;;16.65;5.13;;;;;;;15.85;58.37;102277.81;4935312;29;20440;-51
2022/06/14 08:52:01;;;;;;;23.48;5.50;;;;;;;15.97;59.55;102285.97;4935029;29;20111;-51
2022/06/14 08:54:56;;;;;;;15.00;4.72;;;;;;;16.01;57.60;102274.84;4935523;29;20046;-52
2022/06/14 08:57:44;;;;;;;16.80;4.70;;;;;;;16.13;58.01;102272.59;4934824;29;20106;-52
2022/06/14 09:00:34;;;;;;;16.95;4.50;;;;;;;16.31;56.64;102281.78;4935448;29;20085;-51
2022/06/14 09:03:05;;;;;;;15.40;5.53;;;;;;;16.44;57.00;102276.09;4935400;29;20391;-52
2022/06/14 09:06:11;;;;;;;19.08;6.53;;;;;;;16.56;58.07;102279.88;4934681;29;20031;-52
2022/06/14 09:08:48;;;;;;;17.38;5.10;;;;;;;16.67;55.95;102277.56;4935334;29;20395;-52
2022/06/14 09:11:34;;;;;;;;;;;;;;;16.71;56.23;102272.50;4935271;29;20163;-51
2022/06/14 09:14:08;;;;;;;15.77;5.18;;;;;;;16.85;56.15;102272.88;4934719;29;19914;-51
2022/06/14 09:17:09;;;;;;;18.80;4.88;;;;;;;17.00;57.36;102272.41;4935815;29;20063;-52
2022/06/14 09:20:03;;;;;;;11.20;4.20;;;;;;;17.24;56.23;102268.69;4934630;29;20436;-49
2022/06/14 09:23:07;;;;;;;18.20;4.85;;;;;;;17.43;57.61;102267.41;4935327;29;20084;-51
2022/06/14 09:25:59;;;;;;;16.33;4.38;;;;;;;17.59;52.07;102269.50;4934633;29;20127;-50
2022/06/14 09:28:43;;;;;;;16.35;4.22;;;;;;;17.68;49.54;102262.75;4935295;29;20031;-51
2022/06/14 09:31:30;;;;;;;15.60;4.38;;;;;;;17.54;48.14;102270.25;4935352;29;20035;-51
2022/06/14 09:34:12;;;;;;;22.63;6.45;;;;;;;17.74;53.33;102271.59;4934521;29;20039;-48
2022/06/14 09:36:38;;;;;;;17.67;5.30;;;;;;;17.95;53.58;102267.75;4935348;29;20039;-52
2022/06/14 09:39:21;;;;;;;20.00;6.00;;;;;;;18.12;51.44;102260.25;4934958;29;20036;-52
2022/06/14 09:42:20;;;;;;;17.75;5.13;;;;;;;18.25;49.36;102261.41;4935492;29;20295;-52
2022/06/14 09:45:01;;;;;;;15.63;5.35;;;;;;;18.53;48.51;102260.22;4935390;29;20032;-52
2022/06/14 09:47:44;;;;;;;18.95;5.88;;;;;;;18.79;51.08;102257.22;4934278;29;20535;-52
2022/06/14 09:50:45;;;;;;;16.88;6.25;;;;;;;18.98;50.87;102245.41;4935075;29;20036;-52
2022/06/14 09:53:37;;;;;;;17.92;6.40;;;;;;;19.32;52.34;102243.31;4934996;29;20031;-52
2022/06/14 09:56:28;;;;;;;17.98;5.32;;;;;;;19.69;50.31;102246.47;4935159;29;20035;-53
2022/06/14 09:59:24;;;;;;;12.52;4.85;;;;;;;19.95;49.70;102243.38;4935001;29;20173;-51
2022/06/14 10:02:14;;;;;;;17.48;5.40;;;;;;;20.14;45.05;102233.13;4935982;29;20042;-54
2022/06/14 10:04:59;;;;;;;16.80;5.78;;;;;;;19.97;43.69;102239.03;4938392;29;20397;-53
2022/06/14 10:07:44;;;;;;;15.63;4.80;;;;;;;20.76;44.02;102223.34;4937727;29;20027;-52
2022/06/14 10:10:13;;;;;;;15.48;4.97;;;;;;;20.64;42.20;102235.41;4938256;29;20114;-52
2022/06/14 10:13:06;;;;;;;16.63;4.90;;;;;;;20.88;44.04;102229.56;4938203;29;20032;-52
2022/06/14 10:15:46;;;;;;;14.82;5.97;;;;;;;21.51;45.59;102229.16;4937612;29;20027;-52
2022/06/14 10:18:45;;;;;;;14.90;4.90;;;;;;;22.06;43.56;102227.69;4937974;29;20412;-52
2022/06/14 10:21:19;;;;;;;17.00;5.63;;;;;;;22.50;38.46;102228.72;4938098;29;20095;-53
2022/06/14 10:24:07;;;;;;;19.17;6.53;;;;;;;23.09;39.73;102227.00;4937918;29;20028;-52
2022/06/14 10:30:00;;;;;;;14.93;4.85;;;;;;;25.52;35.13;102223.09;4937616;29;20038;-54
2022/06/14 10:32:56;;;;;;;16.10;4.35;;;;;;;26.52;33.28;102218.28;4937891;29;20593;-54
2022/06/14 10:35:33;;;;;;;14.68;5.07;;;;;;;26.84;30.14;102214.25;4937739;29;20503;-54
2022/06/14 10:38:29;;;;;;;10.90;4.10;;;;;;;27.13;32.85;102209.34;4937951;29;20027;-54
2022/06/14 10:41:01;;;;;;;17.13;3.70;;;;;;;27.48;30.23;102206.06;4937538;29;20607;-55
2022/06/14 10:43:44;;;;;;;13.00;4.15;;;;;;;27.60;30.73;102205.84;4936940;29;20074;-55
2022/06/14 10:46:51;;;;;;;12.15;4.18;;;;;;;28.24;31.80;102202.69;4937678;29;20066;-54
2022/06/14 10:49:34;;;;;;;17.80;4.10;;;;;;;27.75;27.88;102199.31;4927193;29;20071;-54
2022/06/14 10:52:05;;;;;;;13.18;4.00;;;;;;;27.37;28.58;102192.13;4937639;29;20035;-54
2022/06/14 10:55:00;;;;;;;13.27;4.05;;;;;;;27.41;29.46;102194.75;4937463;29;20456;-54
2022/06/14 10:57:52;;;;;;;13.93;4.05;;;;;;;27.50;30.51;102187.50;4936611;29;20523;-55
2022/06/14 11:00:29;;;;;;;13.13;3.63;;;;;;;27.41;31.08;102188.56;4937345;29;20042;-54
2022/06/14 11:03:19;;;;;;;9.75;3.30;;;;;;;28.18;30.86;102181.63;4937484;29;20042;-54
2022/06/14 11:05:53;;;;;;;14.98;4.00;;;;;;;28.77;29.22;102174.94;4936664;29;20032;-55
2022/06/14 11:08:32;;;;;;;9.02;3.53;;;;;;;29.23;27.84;102179.00;4937221;29;20067;-55
2022/06/14 11:11:17;;;;;;;11.30;3.10;;;;;;;29.66;27.08;102170.75;4936291;29;20523;-55
2022/06/14 11:13:57;;;;;;;13.35;3.53;;;;;;;30.28;26.70;102168.84;4936268;29;20039;-54
2022/06/14 11:16:31;;;;;;;11.25;4.13;;;;;;;30.26;25.33;102166.22;4937150;29;20098;-55
2022/06/14 11:19:05;;;;;;;13.52;4.00;;;;;;;30.59;26.63;102168.75;4936091;29;20047;-55
2022/06/14 11:22:00;;;;;;;9.43;3.95;;;;;;;30.66;26.22;102162.28;4936895;29;20078;-55
2022/06/14 11:24:53;;;;;;;12.45;4.07;;;;;;;30.78;27.60;102168.97;4936920;29;20502;-54
2022/06/14 11:27:25;;;;;;;15.48;3.67;;;;;;;30.49;24.00;102162.84;4936788;29;20052;-55
2022/06/14 11:30:18;;;;;;;14.23;3.45;;;;;;;31.23;26.12;102164.72;4936746;29;20032;-55
2022/06/14 11:33:04;;;;;;;13.00;3.67;;;;;;;31.80;24.77;102159.97;4936183;29;20032;-55
2022/06/14 11:35:50;;;;;;;13.67;3.50;;;;;;;31.80;24.40;102151.06;4936630;29;20412;-55
2022/06/14 11:38:30;;;;;;;12.55;3.72;;;;;;;31.27;26.20;102146.84;4936857;29;20040;-54
2022/06/14 11:41:05;;;;;;;12.65;4.07;;;;;;;31.35;23.06;102158.09;4935910;29;20035;-55
2022/06/14 11:43:56;;;;;;;10.60;3.75;;;;;;;31.38;23.88;102136.66;4936682;29;20035;-55
2022/06/14 11:46:40;;;;;;;14.45;3.55;;;;;;;31.59;22.42;102139.44;4935682;29;20087;-54
2022/06/14 11:49:27;;;;;;;10.52;3.08;;;;;;;31.62;23.63;102128.69;4936627;29;20118;-55
2022/06/14 11:52:23;;;;;;;12.35;3.85;;;;;;;31.66;25.05;102130.31;4936408;29;20039;-55
2022/06/14 11:55:03;;;;;;;11.65;3.58;;;;;;;31.79;25.21;102130.66;4935697;29;20055;-55
2022/06/14 11:57:52;;;;;;;14.75;3.60;;;;;;;32.11;24.17;102121.38;4936554;29;20032;-55
2022/06/14 12:00:30;;;;;;;13.05;4.05;;;;;;;31.92;22.57;102117.72;4935627;29;20035;-55
2022/06/14 12:03:01;;;;;;;15.98;4.28;;;;;;;31.91;21.41;102124.00;4936106;29;20111;-55
2022/06/14 12:05:41;;;;;;;10.20;3.38;;;;;;;32.45;25.17;102117.31;4936311;29;20036;-55
2022/06/14 12:08:43;;;;;;;11.75;3.97;;;;;;;32.34;23.28;102127.56;4935121;29;20543;-55
2022/06/14 12:11:23;;;;;;;12.07;3.83;;;;;;;32.93;22.14;102128.59;4935916;29;20543;-55
2022/06/14 12:14:26;;;;;;;11.30;4.18;;;;;;;32.08;22.21;102121.50;4936364;29;20040;-55
2022/06/14 12:17:02;;;;;;;11.15;3.40;;;;;;;31.63;23.59;102119.75;4936062;29;20055;-55
2022/06/14 12:19:33;;;;;;;12.70;3.75;;;;;;;31.85;22.93;102118.00;4935865;29;20098;-55
2022/06/14 12:22:34;;;;;;;12.57;4.50;;;;;;;31.85;23.77;102118.00;4935035;29;20372;-55
2022/06/14 12:28:05;;;;;;;14.35;5.05;;;;;;;30.59;23.70;102114.63;4936037;29;20170;-55